sensor_id;sensor_type;location;lat;lon;timestamp;temperature;humidity
72865;DHT22;61000;48.120;11.548;2023-03-01T00:02:21;1.50;99.90
72865;DHT22;61000;48.120;11.548;2023-03-01T00:04:50;1.50;99.90
72865;DHT22;61000;48.120;11.548;2023-03-01T00:07:17;1.50;99.90
72865;DHT22;61000;48.120;11.548;2023-03-01T00:09:44;1.40;99.90
72865;DHT22;61000;48.120;11.548;2023-03-01T00:12:11;1.50;99.90
72865;DHT22;61000;48.120;11.548;2023-03-01T00:14:38;1.50;99.90
72865;DHT22;61000;48.120;11.548;2023-03-01T00:17:05;1.40;99.90
72865;DHT22;61000;48.120;11.548;2023-03-01T00:19:32;1.40;99.90
72865;DHT22;61000;48.120;11.548;2023-03-01T00:22:00;1.50;99.90
72865;DHT22;61000;48.120;11.548;2023-03-01T00:24:27;1.50;99.90
72865;DHT22;61000;48.120;11.548;2023-03-01T00:26:54;1.50;99.90
72865;DHT22;61000;48.120;11.548;2023-03-01T00:29:22;1.40;99.90
72865;DHT22;61000;48.120;11.548;2023-03-01T00:31:49;1.40;99.90
72865;DHT22;61000;48.120;11.548;2023-03-01T00:34:16;1.40;99.90
72865;DHT22;61000;48.120;11.548;2023-03-01T00:36:43;1.40;99.90
72865;DHT22;61000;48.120;11.548;2023-03-01T00:39:13;1.40;99.90
72865;DHT22;61000;48.120;11.548;2023-03-01T00:41:41;1.40;99.90
72865;DHT22;61000;48.120;11.548;2023-03-01T00:44:08;1.40;99.90
72865;DHT22;61000;48.120;11.548;2023-03-01T00:46:35;1.30;99.90
72865;DHT22;61000;48.120;11.548;2023-03-01T00:49:01;1.40;99.90
72865;DHT22;61000;48.120;11.548;2023-03-01T00:51:30;1.40;99.90
72865;DHT22;61000;48.120;11.548;2023-03-01T00:53:59;1.40;99.90
72865;DHT22;61000;48.120;11.548;2023-03-01T00:56:27;1.40;99.90
72865;DHT22;61000;48.120;11.548;2023-03-01T00:58:55;1.40;99.90
72865;DHT22;61000;48.120;11.548;2023-03-01T01:01:24;1.40;99.90
72865;DHT22;61000;48.120;11.548;2023-03-01T01:03:55;1.30;99.90
72865;DHT22;61000;48.120;11.548;2023-03-01T01:06:23;1.30;99.90
72865;DHT22;61000;48.120;11.548;2023-03-01T01:08:51;1.30;99.90
72865;DHT22;61000;48.120;11.548;2023-03-01T01:11:20;1.30;99.90
72865;DHT22;61000;48.120;11.548;2023-03-01T01:13:49;1.30;99.90
72865;DHT22;61000;48.120;11.548;2023-03-01T01:16:18;1.30;99.90
72865;DHT22;61000;48.120;11.548;2023-03-01T01:18:45;1.30;99.90
72865;DHT22;61000;48.120;11.548;2023-03-01T01:21:14;1.30;99.90
72865;DHT22;61000;48.120;11.548;2023-03-01T01:23:42;1.30;99.90
72865;DHT22;61000;48.120;11.548;2023-03-01T01:26:11;1.30;99.90
72865;DHT22;61000;48.120;11.548;2023-03-01T01:28:38;1.30;99.90
72865;DHT22;61000;48.120;11.548;2023-03-01T01:31:07;1.30;99.90
72865;DHT22;61000;48.120;11.548;2023-03-01T01:33:34;1.20;99.90
72865;DHT22;61000;48.120;11.548;2023-03-01T01:36:01;1.20;99.90
72865;DHT22;61000;48.120;11.548;2023-03-01T01:38:28;1.30;99.90
72865;DHT22;61000;48.120;11.548;2023-03-01T01:40:55;1.20;99.90
72865;DHT22;61000;48.120;11.548;2023-03-01T01:43:23;1.20;99.90
72865;DHT22;61000;48.120;11.548;2023-03-01T01:45:51;1.30;99.90
72865;DHT22;61000;48.120;11.548;2023-03-01T01:48:23;1.30;99.90
72865;DHT22;61000;48.120;11.548;2023-03-01T01:50:55;1.20;99.90
72865;DHT22;61000;48.120;11.548;2023-03-01T01:53:22;1.30;99.90
72865;DHT22;61000;48.120;11.548;2023-03-01T01:55:54;1.30;99.90
72865;DHT22;61000;48.120;11.548;2023-03-01T01:58:24;1.30;99.90
72865;DHT22;61000;48.120;11.548;2023-03-01T02:00:53;1.30;99.90
72865;DHT22;61000;48.120;11.548;2023-03-01T02:03:24;1.30;99.90
72865;DHT22;61000;48.120;11.548;2023-03-01T02:05:57;1.30;99.90
72865;DHT22;61000;48.120;11.548;2023-03-01T02:08:29;1.30;99.90
72865;DHT22;61000;48.120;11.548;2023-03-01T02:10:58;1.30;99.90
72865;DHT22;61000;48.120;11.548;2023-03-01T02:13:26;1.30;99.90
72865;DHT22;61000;48.120;11.548;2023-03-01T02:15:54;1.30;99.90
72865;DHT22;61000;48.120;11.548;2023-03-01T02:18:23;1.30;99.90
72865;DHT22;61000;48.120;11.548;2023-03-01T02:21:08;1.30;99.90
72865;DHT22;61000;48.120;11.548;2023-03-01T02:23:38;1.20;99.90
72865;DHT22;61000;48.120;11.548;2023-03-01T02:26:10;1.20;99.90
72865;DHT22;61000;48.120;11.548;2023-03-01T02:28:41;1.30;99.90
72865;DHT22;61000;48.120;11.548;2023-03-01T02:31:10;1.30;99.90
72865;DHT22;61000;48.120;11.548;2023-03-01T02:33:58;1.30;99.90
72865;DHT22;61000;48.120;11.548;2023-03-01T02:36:31;1.20;99.90
72865;DHT22;61000;48.120;11.548;2023-03-01T02:39:02;1.10;99.90
72865;DHT22;61000;48.120;11.548;2023-03-01T02:41:34;1.00;99.90
72865;DHT22;61000;48.120;11.548;2023-03-01T02:44:04;1.10;99.90
72865;DHT22;61000;48.120;11.548;2023-03-01T02:46:31;1.10;99.90
72865;DHT22;61000;48.120;11.548;2023-03-01T02:48:58;1.10;99.90
72865;DHT22;61000;48.120;11.548;2023-03-01T02:51:42;1.10;99.90
72865;DHT22;61000;48.120;11.548;2023-03-01T02:54:17;1.10;99.90
72865;DHT22;61000;48.120;11.548;2023-03-01T02:56:47;1.10;99.90
72865;DHT22;61000;48.120;11.548;2023-03-01T02:59:20;1.10;99.90
72865;DHT22;61000;48.120;11.548;2023-03-01T03:01:48;1.00;99.90
72865;DHT22;61000;48.120;11.548;2023-03-01T03:04:18;1.10;99.90
72865;DHT22;61000;48.120;11.548;2023-03-01T03:06:49;1.10;99.90
72865;DHT22;61000;48.120;11.548;2023-03-01T03:09:17;1.10;99.90
72865;DHT22;61000;48.120;11.548;2023-03-01T03:11:45;1.10;99.90
72865;DHT22;61000;48.120;11.548;2023-03-01T03:14:14;1.10;99.90
72865;DHT22;61000;48.120;11.548;2023-03-01T03:16:47;1.10;99.90
72865;DHT22;61000;48.120;11.548;2023-03-01T03:19:15;1.10;99.90
72865;DHT22;61000;48.120;11.548;2023-03-01T03:21:42;1.10;99.90
72865;DHT22;61000;48.120;11.548;2023-03-01T03:24:09;1.10;99.90
72865;DHT22;61000;48.120;11.548;2023-03-01T03:26:36;1.10;99.90
72865;DHT22;61000;48.120;11.548;2023-03-01T03:29:03;1.10;99.90
72865;DHT22;61000;48.120;11.548;2023-03-01T03:31:30;0.90;99.90
72865;DHT22;61000;48.120;11.548;2023-03-01T03:33:58;0.90;99.90
72865;DHT22;61000;48.120;11.548;2023-03-01T03:36:25;0.90;99.90
72865;DHT22;61000;48.120;11.548;2023-03-01T03:38:52;0.90;99.90
72865;DHT22;61000;48.120;11.548;2023-03-01T03:41:19;0.90;99.90
72865;DHT22;61000;48.120;11.548;2023-03-01T03:43:46;0.90;99.90
72865;DHT22;61000;48.120;11.548;2023-03-01T03:46:14;0.90;99.90
72865;DHT22;61000;48.120;11.548;2023-03-01T03:48:44;0.80;99.90
72865;DHT22;61000;48.120;11.548;2023-03-01T03:51:14;0.80;99.90
72865;DHT22;61000;48.120;11.548;2023-03-01T03:53:41;0.80;99.90
72865;DHT22;61000;48.120;11.548;2023-03-01T03:56:09;0.80;99.90
72865;DHT22;61000;48.120;11.548;2023-03-01T03:58:36;0.70;99.90
72865;DHT22;61000;48.120;11.548;2023-03-01T04:01:04;0.70;99.90
72865;DHT22;61000;48.120;11.548;2023-03-01T04:03:32;0.70;99.90
72865;DHT22;61000;48.120;11.548;2023-03-01T04:06:01;0.60;99.90
72865;DHT22;61000;48.120;11.548;2023-03-01T04:08:29;0.70;99.90
72865;DHT22;61000;48.120;11.548;2023-03-01T04:11:00;0.80;99.90
72865;DHT22;61000;48.120;11.548;2023-03-01T04:13:49;0.80;99.90
72865;DHT22;61000;48.120;11.548;2023-03-01T04:16:16;0.80;99.90
72865;DHT22;61000;48.120;11.548;2023-03-01T04:18:43;0.70;99.90
72865;DHT22;61000;48.120;11.548;2023-03-01T04:21:10;0.70;99.90
72865;DHT22;61000;48.120;11.548;2023-03-01T04:23:39;0.70;99.90
72865;DHT22;61000;48.120;11.548;2023-03-01T04:26:06;0.70;99.90
72865;DHT22;61000;48.120;11.548;2023-03-01T04:28:35;0.70;99.90
72865;DHT22;61000;48.120;11.548;2023-03-01T04:31:04;0.70;99.90
72865;DHT22;61000;48.120;11.548;2023-03-01T04:33:38;0.70;99.90
72865;DHT22;61000;48.120;11.548;2023-03-01T04:36:07;0.70;99.90
72865;DHT22;61000;48.120;11.548;2023-03-01T04:38:35;0.70;99.90
72865;DHT22;61000;48.120;11.548;2023-03-01T04:41:05;0.60;99.90
72865;DHT22;61000;48.120;11.548;2023-03-01T04:43:33;0.70;99.90
72865;DHT22;61000;48.120;11.548;2023-03-01T04:46:00;0.60;99.90
72865;DHT22;61000;48.120;11.548;2023-03-01T04:48:29;0.60;99.90
72865;DHT22;61000;48.120;11.548;2023-03-01T04:50:56;0.60;99.90
72865;DHT22;61000;48.120;11.548;2023-03-01T04:53:22;0.50;99.90
72865;DHT22;61000;48.120;11.548;2023-03-01T04:55:50;0.50;99.90
72865;DHT22;61000;48.120;11.548;2023-03-01T04:58:18;0.50;99.90
72865;DHT22;61000;48.120;11.548;2023-03-01T05:00:45;0.50;99.90
72865;DHT22;61000;48.120;11.548;2023-03-01T05:03:12;0.50;99.90
72865;DHT22;61000;48.120;11.548;2023-03-01T05:05:44;0.50;99.90
72865;DHT22;61000;48.120;11.548;2023-03-01T05:08:11;0.50;99.90
72865;DHT22;61000;48.120;11.548;2023-03-01T05:10:44;0.40;99.90
72865;DHT22;61000;48.120;11.548;2023-03-01T05:13:13;0.40;99.90
72865;DHT22;61000;48.120;11.548;2023-03-01T05:15:42;0.30;99.90
72865;DHT22;61000;48.120;11.548;2023-03-01T05:18:08;0.30;99.90
72865;DHT22;61000;48.120;11.548;2023-03-01T05:20:37;0.30;99.90
72865;DHT22;61000;48.120;11.548;2023-03-01T05:23:04;0.20;99.90
72865;DHT22;61000;48.120;11.548;2023-03-01T05:25:32;0.20;99.90
72865;DHT22;61000;48.120;11.548;2023-03-01T05:27:59;0.20;99.90
72865;DHT22;61000;48.120;11.548;2023-03-01T05:30:30;0.10;99.90
72865;DHT22;61000;48.120;11.548;2023-03-01T05:32:58;0.10;99.90
72865;DHT22;61000;48.120;11.548;2023-03-01T05:35:25;0.10;99.90
72865;DHT22;61000;48.120;11.548;2023-03-01T05:37:52;0.10;99.90
72865;DHT22;61000;48.120;11.548;2023-03-01T05:40:22;0.00;99.90
72865;DHT22;61000;48.120;11.548;2023-03-01T05:42:52;0.00;99.90
72865;DHT22;61000;48.120;11.548;2023-03-01T05:45:20;0.00;99.90
72865;DHT22;61000;48.120;11.548;2023-03-01T05:47:48;0.00;99.90
72865;DHT22;61000;48.120;11.548;2023-03-01T05:50:19;0.00;99.90
72865;DHT22;61000;48.120;11.548;2023-03-01T05:52:47;0.00;99.90
72865;DHT22;61000;48.120;11.548;2023-03-01T05:55:16;-0.10;99.90
72865;DHT22;61000;48.120;11.548;2023-03-01T05:57:43;-0.10;99.90
72865;DHT22;61000;48.120;11.548;2023-03-01T06:00:11;-0.10;99.90
72865;DHT22;61000;48.120;11.548;2023-03-01T06:02:38;-0.10;99.90
72865;DHT22;61000;48.120;11.548;2023-03-01T06:05:07;0.00;99.90
72865;DHT22;61000;48.120;11.548;2023-03-01T06:07:36;0.00;99.90
72865;DHT22;61000;48.120;11.548;2023-03-01T06:10:04;0.00;99.90
72865;DHT22;61000;48.120;11.548;2023-03-01T06:12:31;-0.10;99.90
72865;DHT22;61000;48.120;11.548;2023-03-01T06:14:58;-0.10;99.90
72865;DHT22;61000;48.120;11.548;2023-03-01T06:17:26;-0.10;99.90
72865;DHT22;61000;48.120;11.548;2023-03-01T06:19:55;-0.10;99.90
72865;DHT22;61000;48.120;11.548;2023-03-01T06:22:22;-0.10;99.90
72865;DHT22;61000;48.120;11.548;2023-03-01T06:24:50;-0.10;99.90
72865;DHT22;61000;48.120;11.548;2023-03-01T06:27:17;0.00;99.90
72865;DHT22;61000;48.120;11.548;2023-03-01T06:29:43;-0.10;99.90
72865;DHT22;61000;48.120;11.548;2023-03-01T06:32:10;0.00;99.90
72865;DHT22;61000;48.120;11.548;2023-03-01T06:34:37;-0.10;99.90
72865;DHT22;61000;48.120;11.548;2023-03-01T06:37:04;-0.10;99.90
72865;DHT22;61000;48.120;11.548;2023-03-01T06:39:31;-0.10;99.90
72865;DHT22;61000;48.120;11.548;2023-03-01T06:41:59;-0.10;99.90
72865;DHT22;61000;48.120;11.548;2023-03-01T06:44:26;-0.10;99.90
72865;DHT22;61000;48.120;11.548;2023-03-01T06:46:53;-0.10;99.90
72865;DHT22;61000;48.120;11.548;2023-03-01T06:49:21;-0.10;99.90
72865;DHT22;61000;48.120;11.548;2023-03-01T06:51:48;-0.10;99.90
72865;DHT22;61000;48.120;11.548;2023-03-01T06:54:14;0.00;99.90
72865;DHT22;61000;48.120;11.548;2023-03-01T06:56:43;0.00;99.90
72865;DHT22;61000;48.120;11.548;2023-03-01T06:59:14;0.10;99.90
72865;DHT22;61000;48.120;11.548;2023-03-01T07:01:41;0.10;99.90
72865;DHT22;61000;48.120;11.548;2023-03-01T07:04:07;0.10;99.90
72865;DHT22;61000;48.120;11.548;2023-03-01T07:06:34;0.00;99.90
72865;DHT22;61000;48.120;11.548;2023-03-01T07:09:01;0.00;99.90
72865;DHT22;61000;48.120;11.548;2023-03-01T07:11:28;0.00;99.90
72865;DHT22;61000;48.120;11.548;2023-03-01T07:13:55;-0.10;99.90
72865;DHT22;61000;48.120;11.548;2023-03-01T07:16:23;-0.10;99.90
72865;DHT22;61000;48.120;11.548;2023-03-01T07:18:50;0.00;99.90
72865;DHT22;61000;48.120;11.548;2023-03-01T07:21:17;0.00;99.90
72865;DHT22;61000;48.120;11.548;2023-03-01T07:23:43;0.00;99.90
72865;DHT22;61000;48.120;11.548;2023-03-01T07:26:13;0.10;99.90
72865;DHT22;61000;48.120;11.548;2023-03-01T07:28:40;0.10;99.90
72865;DHT22;61000;48.120;11.548;2023-03-01T07:31:07;0.10;99.90
72865;DHT22;61000;48.120;11.548;2023-03-01T07:33:35;0.10;99.90
72865;DHT22;61000;48.120;11.548;2023-03-01T07:36:04;0.10;99.90
72865;DHT22;61000;48.120;11.548;2023-03-01T07:38:31;0.10;99.90
72865;DHT22;61000;48.120;11.548;2023-03-01T07:40:59;0.10;99.90
72865;DHT22;61000;48.120;11.548;2023-03-01T07:43:26;0.10;99.90
72865;DHT22;61000;48.120;11.548;2023-03-01T07:45:53;0.10;99.90
72865;DHT22;61000;48.120;11.548;2023-03-01T07:48:19;0.10;99.90
72865;DHT22;61000;48.120;11.548;2023-03-01T07:50:47;0.10;99.90
72865;DHT22;61000;48.120;11.548;2023-03-01T07:53:14;0.20;99.90
72865;DHT22;61000;48.120;11.548;2023-03-01T07:55:41;0.20;99.90
72865;DHT22;61000;48.120;11.548;2023-03-01T07:58:08;0.30;99.90
72865;DHT22;61000;48.120;11.548;2023-03-01T08:00:35;0.30;99.90
72865;DHT22;61000;48.120;11.548;2023-03-01T08:03:02;0.20;99.90
72865;DHT22;61000;48.120;11.548;2023-03-01T08:05:29;0.20;99.90
72865;DHT22;61000;48.120;11.548;2023-03-01T08:07:57;0.20;99.90
72865;DHT22;61000;48.120;11.548;2023-03-01T08:10:24;0.20;99.90
72865;DHT22;61000;48.120;11.548;2023-03-01T08:12:51;0.20;99.90
72865;DHT22;61000;48.120;11.548;2023-03-01T08:15:19;0.10;99.90
72865;DHT22;61000;48.120;11.548;2023-03-01T08:17:48;0.20;99.90
72865;DHT22;61000;48.120;11.548;2023-03-01T08:20:16;0.20;99.90
72865;DHT22;61000;48.120;11.548;2023-03-01T08:22:42;0.20;99.90
72865;DHT22;61000;48.120;11.548;2023-03-01T08:25:11;0.10;99.90
72865;DHT22;61000;48.120;11.548;2023-03-01T08:27:37;0.20;99.90
72865;DHT22;61000;48.120;11.548;2023-03-01T08:30:06;0.30;99.90
72865;DHT22;61000;48.120;11.548;2023-03-01T08:32:36;0.40;99.90
72865;DHT22;61000;48.120;11.548;2023-03-01T08:35:03;0.40;99.90
72865;DHT22;61000;48.120;11.548;2023-03-01T08:37:30;0.40;99.90
72865;DHT22;61000;48.120;11.548;2023-03-01T08:39:58;0.40;99.90
72865;DHT22;61000;48.120;11.548;2023-03-01T08:42:27;0.50;99.90
72865;DHT22;61000;48.120;11.548;2023-03-01T08:44:53;0.60;99.90
72865;DHT22;61000;48.120;11.548;2023-03-01T08:47:20;0.70;99.90
72865;DHT22;61000;48.120;11.548;2023-03-01T08:49:49;0.80;99.90
72865;DHT22;61000;48.120;11.548;2023-03-01T08:52:16;0.80;99.90
72865;DHT22;61000;48.120;11.548;2023-03-01T08:54:43;0.90;99.90
72865;DHT22;61000;48.120;11.548;2023-03-01T08:57:10;0.90;99.90
72865;DHT22;61000;48.120;11.548;2023-03-01T08:59:39;1.10;99.90
72865;DHT22;61000;48.120;11.548;2023-03-01T09:02:12;1.00;99.90
72865;DHT22;61000;48.120;11.548;2023-03-01T09:04:40;1.00;99.90
72865;DHT22;61000;48.120;11.548;2023-03-01T09:07:07;0.90;99.90
72865;DHT22;61000;48.120;11.548;2023-03-01T09:09:34;0.90;99.90
72865;DHT22;61000;48.120;11.548;2023-03-01T09:12:01;0.90;99.90
72865;DHT22;61000;48.120;11.548;2023-03-01T09:14:29;0.90;99.90
72865;DHT22;61000;48.120;11.548;2023-03-01T09:16:57;0.90;99.90
72865;DHT22;61000;48.120;11.548;2023-03-01T09:19:24;1.00;99.90
72865;DHT22;61000;48.120;11.548;2023-03-01T09:21:50;1.20;99.90
72865;DHT22;61000;48.120;11.548;2023-03-01T09:24:20;1.20;99.90
72865;DHT22;61000;48.120;11.548;2023-03-01T09:26:47;1.30;99.90
72865;DHT22;61000;48.120;11.548;2023-03-01T09:29:14;1.40;99.90
72865;DHT22;61000;48.120;11.548;2023-03-01T09:31:42;1.40;99.90
72865;DHT22;61000;48.120;11.548;2023-03-01T09:34:10;1.50;99.90
72865;DHT22;61000;48.120;11.548;2023-03-01T09:36:39;1.60;99.90
72865;DHT22;61000;48.120;11.548;2023-03-01T09:39:06;1.60;99.90
72865;DHT22;61000;48.120;11.548;2023-03-01T09:41:43;1.70;99.90
72865;DHT22;61000;48.120;11.548;2023-03-01T09:44:18;1.70;99.90
72865;DHT22;61000;48.120;11.548;2023-03-01T09:46:47;1.70;99.90
72865;DHT22;61000;48.120;11.548;2023-03-01T09:49:19;1.70;99.90
72865;DHT22;61000;48.120;11.548;2023-03-01T09:51:54;1.80;99.90
72865;DHT22;61000;48.120;11.548;2023-03-01T09:54:22;1.70;99.90
72865;DHT22;61000;48.120;11.548;2023-03-01T09:56:57;1.80;99.90
72865;DHT22;61000;48.120;11.548;2023-03-01T09:59:29;1.90;99.90
72865;DHT22;61000;48.120;11.548;2023-03-01T10:02:02;2.00;99.70
72865;DHT22;61000;48.120;11.548;2023-03-01T10:04:41;2.00;99.60
72865;DHT22;61000;48.120;11.548;2023-03-01T10:07:21;2.00;99.60
72865;DHT22;61000;48.120;11.548;2023-03-01T10:09:53;1.90;99.70
72865;DHT22;61000;48.120;11.548;2023-03-01T10:12:24;1.90;99.80
72865;DHT22;61000;48.120;11.548;2023-03-01T10:14:57;1.90;99.80
72865;DHT22;61000;48.120;11.548;2023-03-01T10:17:30;2.00;99.80
72865;DHT22;61000;48.120;11.548;2023-03-01T10:20:14;1.90;99.60
72865;DHT22;61000;48.120;11.548;2023-03-01T10:22:41;1.80;99.70
72865;DHT22;61000;48.120;11.548;2023-03-01T10:25:13;1.70;99.90
72865;DHT22;61000;48.120;11.548;2023-03-01T10:27:46;1.90;99.90
72865;DHT22;61000;48.120;11.548;2023-03-01T10:30:20;1.90;99.90
72865;DHT22;61000;48.120;11.548;2023-03-01T10:32:49;1.90;99.80
72865;DHT22;61000;48.120;11.548;2023-03-01T10:35:22;2.00;99.80
72865;DHT22;61000;48.120;11.548;2023-03-01T10:38:03;2.10;99.40
72865;DHT22;61000;48.120;11.548;2023-03-01T10:40:30;2.10;99.50
72865;DHT22;61000;48.120;11.548;2023-03-01T10:42:58;2.10;99.20
72865;DHT22;61000;48.120;11.548;2023-03-01T10:45:33;2.10;99.00
72865;DHT22;61000;48.120;11.548;2023-03-01T10:48:11;2.10;99.40
72865;DHT22;61000;48.120;11.548;2023-03-01T10:50:42;2.10;99.00
72865;DHT22;61000;48.120;11.548;2023-03-01T10:53:22;2.30;99.10
72865;DHT22;61000;48.120;11.548;2023-03-01T10:56:01;2.70;98.60
72865;DHT22;61000;48.120;11.548;2023-03-01T10:58:29;2.80;98.40
72865;DHT22;61000;48.120;11.548;2023-03-01T11:00:58;2.80;98.00
72865;DHT22;61000;48.120;11.548;2023-03-01T11:03:27;2.90;98.10
72865;DHT22;61000;48.120;11.548;2023-03-01T11:06:02;3.00;97.80
72865;DHT22;61000;48.120;11.548;2023-03-01T11:08:31;3.00;97.70
72865;DHT22;61000;48.120;11.548;2023-03-01T11:11:05;3.00;97.80
72865;DHT22;61000;48.120;11.548;2023-03-01T11:13:32;3.10;97.70
72865;DHT22;61000;48.120;11.548;2023-03-01T11:16:02;3.20;97.50
72865;DHT22;61000;48.120;11.548;2023-03-01T11:18:30;3.20;97.60
72865;DHT22;61000;48.120;11.548;2023-03-01T11:21:00;3.00;97.40
72865;DHT22;61000;48.120;11.548;2023-03-01T11:23:28;3.00;97.70
72865;DHT22;61000;48.120;11.548;2023-03-01T11:26:01;3.00;97.60
72865;DHT22;61000;48.120;11.548;2023-03-01T11:28:29;3.20;97.70
72865;DHT22;61000;48.120;11.548;2023-03-01T11:31:01;3.20;97.20
72865;DHT22;61000;48.120;11.548;2023-03-01T11:33:37;3.40;97.10
72865;DHT22;61000;48.120;11.548;2023-03-01T11:36:15;3.50;96.80
72865;DHT22;61000;48.120;11.548;2023-03-01T11:38:43;3.40;96.80
72865;DHT22;61000;48.120;11.548;2023-03-01T11:41:14;3.40;97.10
72865;DHT22;61000;48.120;11.548;2023-03-01T11:43:49;3.40;97.10
72865;DHT22;61000;48.120;11.548;2023-03-01T11:46:37;3.60;97.10
72865;DHT22;61000;48.120;11.548;2023-03-01T11:52:28;3.90;96.60
72865;DHT22;61000;48.120;11.548;2023-03-01T11:55:06;3.70;96.60
72865;DHT22;61000;48.120;11.548;2023-03-01T11:57:44;3.60;97.00
72865;DHT22;61000;48.120;11.548;2023-03-01T12:00:41;3.60;97.30
72865;DHT22;61000;48.120;11.548;2023-03-01T12:03:25;3.70;97.10
72865;DHT22;61000;48.120;11.548;2023-03-01T12:06:13;4.00;96.70
72865;DHT22;61000;48.120;11.548;2023-03-01T12:08:59;4.10;96.30
72865;DHT22;61000;48.120;11.548;2023-03-01T12:11:40;4.10;96.30
72865;DHT22;61000;48.120;11.548;2023-03-01T12:14:17;4.30;96.40
72865;DHT22;61000;48.120;11.548;2023-03-01T12:17:11;4.10;96.10
72865;DHT22;61000;48.120;11.548;2023-03-01T12:19:56;4.10;96.20
72865;DHT22;61000;48.120;11.548;2023-03-01T12:22:30;4.30;96.10
72865;DHT22;61000;48.120;11.548;2023-03-01T12:25:14;4.20;95.90
72865;DHT22;61000;48.120;11.548;2023-03-01T12:28:04;4.30;95.90
72865;DHT22;61000;48.120;11.548;2023-03-01T12:30:46;4.50;95.70
72865;DHT22;61000;48.120;11.548;2023-03-01T12:33:23;4.60;95.70
72865;DHT22;61000;48.120;11.548;2023-03-01T12:39:02;4.80;95.20
72865;DHT22;61000;48.120;11.548;2023-03-01T12:41:42;4.90;95.30
72865;DHT22;61000;48.120;11.548;2023-03-01T12:44:29;5.00;95.10
72865;DHT22;61000;48.120;11.548;2023-03-01T12:47:11;5.00;95.10
72865;DHT22;61000;48.120;11.548;2023-03-01T12:49:44;5.00;94.80
72865;DHT22;61000;48.120;11.548;2023-03-01T12:52:15;5.10;94.90
72865;DHT22;61000;48.120;11.548;2023-03-01T12:54:44;5.30;94.70
72865;DHT22;61000;48.120;11.548;2023-03-01T12:57:18;5.40;94.50
72865;DHT22;61000;48.120;11.548;2023-03-01T12:59:51;5.50;94.40
72865;DHT22;61000;48.120;11.548;2023-03-01T13:02:31;5.80;94.30
72865;DHT22;61000;48.120;11.548;2023-03-01T13:05:18;5.80;93.70
72865;DHT22;61000;48.120;11.548;2023-03-01T13:07:55;5.70;93.60
72865;DHT22;61000;48.120;11.548;2023-03-01T13:10:27;5.70;93.80
72865;DHT22;61000;48.120;11.548;2023-03-01T13:13:12;5.60;93.90
72865;DHT22;61000;48.120;11.548;2023-03-01T13:15:39;5.70;93.70
72865;DHT22;61000;48.120;11.548;2023-03-01T13:18:28;5.80;93.50
72865;DHT22;61000;48.120;11.548;2023-03-01T13:20:56;6.00;93.60
72865;DHT22;61000;48.120;11.548;2023-03-01T13:23:26;6.10;93.30
72865;DHT22;61000;48.120;11.548;2023-03-01T13:26:02;6.00;93.10
72865;DHT22;61000;48.120;11.548;2023-03-01T13:28:46;6.10;93.10
72865;DHT22;61000;48.120;11.548;2023-03-01T13:31:55;6.10;93.10
72865;DHT22;61000;48.120;11.548;2023-03-01T13:34:42;6.00;93.30
72865;DHT22;61000;48.120;11.548;2023-03-01T13:37:17;6.00;93.60
72865;DHT22;61000;48.120;11.548;2023-03-01T13:39:44;6.00;93.80
72865;DHT22;61000;48.120;11.548;2023-03-01T13:42:32;6.00;93.80
72865;DHT22;61000;48.120;11.548;2023-03-01T13:45:01;6.10;93.90
72865;DHT22;61000;48.120;11.548;2023-03-01T13:47:29;6.00;94.00
72865;DHT22;61000;48.120;11.548;2023-03-01T13:49:57;6.00;94.00
72865;DHT22;61000;48.120;11.548;2023-03-01T13:52:36;6.10;93.70
72865;DHT22;61000;48.120;11.548;2023-03-01T13:55:16;6.30;93.60
72865;DHT22;61000;48.120;11.548;2023-03-01T13:57:46;6.50;93.50
72865;DHT22;61000;48.120;11.548;2023-03-01T14:00:32;6.40;93.30
72865;DHT22;61000;48.120;11.548;2023-03-01T14:03:01;6.60;93.10
72865;DHT22;61000;48.120;11.548;2023-03-01T14:05:29;6.60;92.70
72865;DHT22;61000;48.120;11.548;2023-03-01T14:07:56;6.50;93.00
72865;DHT22;61000;48.120;11.548;2023-03-01T14:10:26;6.40;93.30
72865;DHT22;61000;48.120;11.548;2023-03-01T14:12:59;6.50;93.20
72865;DHT22;61000;48.120;11.548;2023-03-01T14:15:34;6.60;93.30
72865;DHT22;61000;48.120;11.548;2023-03-01T14:18:04;6.40;93.50
72865;DHT22;61000;48.120;11.548;2023-03-01T14:20:39;6.30;93.80
72865;DHT22;61000;48.120;11.548;2023-03-01T14:23:10;6.30;93.60
72865;DHT22;61000;48.120;11.548;2023-03-01T14:25:38;6.10;94.00
72865;DHT22;61000;48.120;11.548;2023-03-01T14:28:16;6.30;94.00
72865;DHT22;61000;48.120;11.548;2023-03-01T14:30:46;6.10;93.90
72865;DHT22;61000;48.120;11.548;2023-03-01T14:33:22;6.10;94.20
72865;DHT22;61000;48.120;11.548;2023-03-01T14:35:54;6.00;94.50
72865;DHT22;61000;48.120;11.548;2023-03-01T14:38:23;6.10;94.50
72865;DHT22;61000;48.120;11.548;2023-03-01T14:40:52;6.20;94.30
72865;DHT22;61000;48.120;11.548;2023-03-01T14:43:22;6.30;94.20
72865;DHT22;61000;48.120;11.548;2023-03-01T14:45:52;6.20;94.20
72865;DHT22;61000;48.120;11.548;2023-03-01T14:48:19;6.20;94.20
72865;DHT22;61000;48.120;11.548;2023-03-01T14:50:47;6.20;94.40
72865;DHT22;61000;48.120;11.548;2023-03-01T14:53:17;6.20;94.30
72865;DHT22;61000;48.120;11.548;2023-03-01T14:55:47;6.20;94.30
72865;DHT22;61000;48.120;11.548;2023-03-01T14:58:19;6.20;94.40
72865;DHT22;61000;48.120;11.548;2023-03-01T15:00:49;6.30;94.50
72865;DHT22;61000;48.120;11.548;2023-03-01T15:03:24;6.30;94.70
72865;DHT22;61000;48.120;11.548;2023-03-01T15:05:52;6.30;95.00
72865;DHT22;61000;48.120;11.548;2023-03-01T15:08:22;6.30;94.70
72865;DHT22;61000;48.120;11.548;2023-03-01T15:10:59;6.30;94.70
72865;DHT22;61000;48.120;11.548;2023-03-01T15:13:30;6.30;94.80
72865;DHT22;61000;48.120;11.548;2023-03-01T15:16:06;6.30;94.90
72865;DHT22;61000;48.120;11.548;2023-03-01T15:18:35;6.20;94.90
72865;DHT22;61000;48.120;11.548;2023-03-01T15:21:07;6.20;95.00
72865;DHT22;61000;48.120;11.548;2023-03-01T15:23:37;6.30;95.20
72865;DHT22;61000;48.120;11.548;2023-03-01T15:26:05;6.30;95.50
72865;DHT22;61000;48.120;11.548;2023-03-01T15:28:34;6.30;95.10
72865;DHT22;61000;48.120;11.548;2023-03-01T15:31:04;6.30;95.10
72865;DHT22;61000;48.120;11.548;2023-03-01T15:33:36;6.30;95.50
72865;DHT22;61000;48.120;11.548;2023-03-01T15:38:53;6.20;95.40
72865;DHT22;61000;48.120;11.548;2023-03-01T15:41:25;6.20;95.50
72865;DHT22;61000;48.120;11.548;2023-03-01T15:43:53;6.20;95.60
72865;DHT22;61000;48.120;11.548;2023-03-01T15:46:27;6.20;95.70
72865;DHT22;61000;48.120;11.548;2023-03-01T15:48:58;6.20;95.80
72865;DHT22;61000;48.120;11.548;2023-03-01T15:51:31;6.10;95.80
72865;DHT22;61000;48.120;11.548;2023-03-01T15:54:01;6.10;96.00
72865;DHT22;61000;48.120;11.548;2023-03-01T15:56:29;6.10;96.10
72865;DHT22;61000;48.120;11.548;2023-03-01T15:59:00;6.10;96.10
72865;DHT22;61000;48.120;11.548;2023-03-01T16:01:28;6.10;96.30